Des Peres, Missouri
Current Conditions -  °F | °C
As of 7:51 AM on Thursday 18 Dec 2014 (Local Time) from KSTL Reporting Station
Light Snow Light Snow  
Wind Chill: 30°   Ceiling: 4700
Heat Index: 30°   Visibility: 3mi
Dew Point: 24°   Wind: 3mph
Humidity: 79%   Direction: 50°NE
Pressure: 30.3"   Gusts: NA
Location:  38.5796°N, 90.4197°W
Report Text: KSTL 181351Z 05003KT 3SM -SN FEW010 OVC047 M01/M04 A3030 RMK AO2 SLP272 P0000 T10111044
Loading
Personal Weather Stations






























Interactive Weather Map New forecast layout! Learn more

10-Day Weather Forecast

Advertisements
Track Severe Weather on mobile